Terminal Aerodrome Forecast
Issued by NWS

Home | Current Version | Previous Version | Text Only | Print | Product List | Glossary On
Versions: 1 2 3 4 5 6 7 8 9 10 11 12 13 14 15 16
000
FTUS46 KLOX 041136
TAFSBA
TAF
KSBA 041136Z 0412/0512 VRB03KT P6SM SCT200
     FM041700 16008KT P6SM SCT200
     FM042000 23008KT P6SM SCT200
     FM050200 VRB05KT P6SM SCT200 WS010/34030KT
     FM050700 VRB03KT P6SM BKN200=

USA.gov is the U.S. government's official web portal to all federal, state and local government web resources and services.